sensor_id;sensor_type;location;lat;lon;timestamp;P1;durP1;ratioP1;P2;durP2;ratioP2
67930;SDS011;63902;52.000;5.954;2023-04-24T00:00:26;3.55;;;3.03;;
67930;SDS011;63902;52.000;5.954;2023-04-24T00:01:26;4.57;;;3.03;;
67930;SDS011;63902;52.000;5.954;2023-04-24T00:02:27;4.95;;;3.25;;
67930;SDS011;63902;52.000;5.954;2023-04-24T00:03:27;5.45;;;3.20;;
67930;SDS011;63902;52.000;5.954;2023-04-24T00:04:29;4.03;;;2.90;;
67930;SDS011;63902;52.000;5.954;2023-04-24T00:05:30;4.68;;;3.53;;
67930;SDS011;63902;52.000;5.954;2023-04-24T00:06:30;5.57;;;3.75;;
67930;SDS011;63902;52.000;5.954;2023-04-24T00:07:31;5.03;;;3.75;;
67930;SDS011;63902;52.000;5.954;2023-04-24T00:08:31;4.95;;;3.50;;
67930;SDS011;63902;52.000;5.954;2023-04-24T00:09:32;8.15;;;3.75;;
67930;SDS011;63902;52.000;5.954;2023-04-24T00:10:32;8.48;;;3.90;;
67930;SDS011;63902;52.000;5.954;2023-04-24T00:11:33;6.05;;;4.03;;
67930;SDS011;63902;52.000;5.954;2023-04-24T00:12:33;9.25;;;4.00;;
67930;SDS011;63902;52.000;5.954;2023-04-24T00:13:34;4.43;;;3.58;;
67930;SDS011;63902;52.000;5.954;2023-04-24T00:14:34;5.80;;;4.13;;
67930;SDS011;63902;52.000;5.954;2023-04-24T00:15:35;4.78;;;3.72;;
67930;SDS011;63902;52.000;5.954;2023-04-24T00:16:35;9.43;;;4.13;;
67930;SDS011;63902;52.000;5.954;2023-04-24T00:17:36;5.72;;;3.72;;
67930;SDS011;63902;52.000;5.954;2023-04-24T00:18:36;5.13;;;3.95;;
67930;SDS011;63902;52.000;5.954;2023-04-24T00:19:38;4.90;;;4.13;;
67930;SDS011;63902;52.000;5.954;2023-04-24T00:20:39;5.32;;;3.95;;
67930;SDS011;63902;52.000;5.954;2023-04-24T00:21:39;4.72;;;3.95;;
67930;SDS011;63902;52.000;5.954;2023-04-24T00:22:40;5.15;;;4.40;;
67930;SDS011;63902;52.000;5.954;2023-04-24T00:23:41;7.20;;;4.65;;
67930;SDS011;63902;52.000;5.954;2023-04-24T00:24:41;5.55;;;4.07;;
67930;SDS011;63902;52.000;5.954;2023-04-24T00:25:42;4.85;;;4.00;;
67930;SDS011;63902;52.000;5.954;2023-04-24T00:26:42;5.70;;;4.07;;
67930;SDS011;63902;52.000;5.954;2023-04-24T00:27:42;4.63;;;3.90;;
67930;SDS011;63902;52.000;5.954;2023-04-24T00:28:43;4.78;;;3.75;;
67930;SDS011;63902;52.000;5.954;2023-04-24T00:29:43;4.47;;;3.33;;
67930;SDS011;63902;52.000;5.954;2023-04-24T00:30:44;4.57;;;3.13;;
67930;SDS011;63902;52.000;5.954;2023-04-24T00:31:44;6.72;;;3.20;;
67930;SDS011;63902;52.000;5.954;2023-04-24T00:32:45;3.25;;;2.65;;
67930;SDS011;63902;52.000;5.954;2023-04-24T00:33:46;3.42;;;2.63;;
67930;SDS011;63902;52.000;5.954;2023-04-24T00:34:48;3.63;;;2.55;;
67930;SDS011;63902;52.000;5.954;2023-04-24T00:35:48;3.92;;;2.50;;
67930;SDS011;63902;52.000;5.954;2023-04-24T00:36:49;2.97;;;2.45;;
67930;SDS011;63902;52.000;5.954;2023-04-24T00:37:49;4.07;;;2.40;;
67930;SDS011;63902;52.000;5.954;2023-04-24T00:38:50;1.88;;;1.52;;
67930;SDS011;63902;52.000;5.954;2023-04-24T00:39:50;3.00;;;2.30;;
67930;SDS011;63902;52.000;5.954;2023-04-24T00:40:51;2.35;;;1.80;;
67930;SDS011;63902;52.000;5.954;2023-04-24T00:41:51;3.80;;;2.10;;
67930;SDS011;63902;52.000;5.954;2023-04-24T00:42:52;2.05;;;1.55;;
67930;SDS011;63902;52.000;5.954;2023-04-24T00:43:53;3.55;;;1.75;;
67930;SDS011;63902;52.000;5.954;2023-04-24T00:44:53;5.32;;;1.80;;
67930;SDS011;63902;52.000;5.954;2023-04-24T00:45:54;2.40;;;1.80;;
67930;SDS011;63902;52.000;5.954;2023-04-24T00:46:54;4.80;;;1.98;;
67930;SDS011;63902;52.000;5.954;2023-04-24T00:47:55;2.72;;;1.50;;
67930;SDS011;63902;52.000;5.954;2023-04-24T00:48:56;2.30;;;1.70;;
67930;SDS011;63902;52.000;5.954;2023-04-24T00:49:58;2.22;;;1.58;;
67930;SDS011;63902;52.000;5.954;2023-04-24T00:50:58;3.08;;;1.63;;
67930;SDS011;63902;52.000;5.954;2023-04-24T00:51:58;2.08;;;1.50;;
67930;SDS011;63902;52.000;5.954;2023-04-24T00:52:59;2.10;;;1.20;;
67930;SDS011;63902;52.000;5.954;2023-04-24T00:54:00;2.05;;;1.40;;
67930;SDS011;63902;52.000;5.954;2023-04-24T00:55:01;2.08;;;1.65;;
67930;SDS011;63902;52.000;5.954;2023-04-24T00:56:01;2.38;;;1.60;;
67930;SDS011;63902;52.000;5.954;2023-04-24T00:57:02;3.75;;;1.80;;
67930;SDS011;63902;52.000;5.954;2023-04-24T00:58:04;4.43;;;1.80;;
67930;SDS011;63902;52.000;5.954;2023-04-24T00:59:04;2.35;;;1.52;;
67930;SDS011;63902;52.000;5.954;2023-04-24T01:00:05;2.90;;;1.83;;
67930;SDS011;63902;52.000;5.954;2023-04-24T01:01:07;1.95;;;1.52;;
67930;SDS011;63902;52.000;5.954;2023-04-24T01:02:08;2.38;;;1.73;;
67930;SDS011;63902;52.000;5.954;2023-04-24T01:03:09;4.10;;;1.92;;
67930;SDS011;63902;52.000;5.954;2023-04-24T01:04:10;3.00;;;2.10;;
67930;SDS011;63902;52.000;5.954;2023-04-24T01:05:13;3.35;;;2.28;;
67930;SDS011;63902;52.000;5.954;2023-04-24T01:06:16;2.67;;;2.17;;
67930;SDS011;63902;52.000;5.954;2023-04-24T01:07:19;3.80;;;2.40;;
67930;SDS011;63902;52.000;5.954;2023-04-24T01:08:20;3.50;;;2.85;;
67930;SDS011;63902;52.000;5.954;2023-04-24T01:09:23;3.58;;;2.50;;
67930;SDS011;63902;52.000;5.954;2023-04-24T01:10:23;5.47;;;2.63;;
67930;SDS011;63902;52.000;5.954;2023-04-24T01:11:25;3.88;;;2.53;;
67930;SDS011;63902;52.000;5.954;2023-04-24T01:12:26;3.90;;;2.85;;
67930;SDS011;63902;52.000;5.954;2023-04-24T01:13:26;5.68;;;3.83;;
67930;SDS011;63902;52.000;5.954;2023-04-24T01:14:27;5.10;;;3.30;;
67930;SDS011;63902;52.000;5.954;2023-04-24T01:15:28;4.65;;;3.42;;
67930;SDS011;63902;52.000;5.954;2023-04-24T01:16:29;4.82;;;3.47;;
67930;SDS011;63902;52.000;5.954;2023-04-24T01:17:29;8.07;;;3.85;;
67930;SDS011;63902;52.000;5.954;2023-04-24T01:18:29;6.22;;;3.40;;
67930;SDS011;63902;52.000;5.954;2023-04-24T01:19:30;6.28;;;4.18;;
67930;SDS011;63902;52.000;5.954;2023-04-24T01:20:32;9.25;;;5.35;;
67930;SDS011;63902;52.000;5.954;2023-04-24T01:21:34;10.38;;;4.97;;
67930;SDS011;63902;52.000;5.954;2023-04-24T01:22:38;7.43;;;5.30;;
67930;SDS011;63902;52.000;5.954;2023-04-24T01:23:38;7.82;;;5.20;;
67930;SDS011;63902;52.000;5.954;2023-04-24T01:24:39;7.30;;;5.68;;
67930;SDS011;63902;52.000;5.954;2023-04-24T01:25:40;9.93;;;6.38;;
67930;SDS011;63902;52.000;5.954;2023-04-24T01:26:40;10.13;;;6.65;;
67930;SDS011;63902;52.000;5.954;2023-04-24T01:27:41;11.40;;;6.90;;
67930;SDS011;63902;52.000;5.954;2023-04-24T01:28:41;13.10;;;7.30;;
67930;SDS011;63902;52.000;5.954;2023-04-24T01:29:42;9.98;;;6.78;;
67930;SDS011;63902;52.000;5.954;2023-04-24T01:30:43;11.43;;;7.15;;
67930;SDS011;63902;52.000;5.954;2023-04-24T01:31:43;9.73;;;7.03;;
67930;SDS011;63902;52.000;5.954;2023-04-24T01:32:44;12.05;;;7.80;;
67930;SDS011;63902;52.000;5.954;2023-04-24T01:33:46;13.88;;;7.32;;
67930;SDS011;63902;52.000;5.954;2023-04-24T01:34:47;12.70;;;7.50;;
67930;SDS011;63902;52.000;5.954;2023-04-24T01:35:48;15.48;;;7.70;;
67930;SDS011;63902;52.000;5.954;2023-04-24T01:36:49;12.52;;;8.18;;
67930;SDS011;63902;52.000;5.954;2023-04-24T01:37:51;11.23;;;7.95;;
67930;SDS011;63902;52.000;5.954;2023-04-24T01:38:51;11.55;;;7.30;;
67930;SDS011;63902;52.000;5.954;2023-04-24T01:39:52;10.52;;;7.43;;
67930;SDS011;63902;52.000;5.954;2023-04-24T01:40:52;12.23;;;8.70;;
67930;SDS011;63902;52.000;5.954;2023-04-24T01:41:53;14.70;;;8.82;;
67930;SDS011;63902;52.000;5.954;2023-04-24T01:42:54;18.58;;;8.18;;
67930;SDS011;63902;52.000;5.954;2023-04-24T01:43:55;15.02;;;9.27;;
67930;SDS011;63902;52.000;5.954;2023-04-24T01:44:57;13.82;;;8.68;;
67930;SDS011;63902;52.000;5.954;2023-04-24T01:45:58;16.88;;;8.93;;
67930;SDS011;63902;52.000;5.954;2023-04-24T01:46:59;13.07;;;8.73;;
67930;SDS011;63902;52.000;5.954;2023-04-24T01:48:00;16.95;;;9.38;;
67930;SDS011;63902;52.000;5.954;2023-04-24T01:49:01;14.43;;;8.80;;
67930;SDS011;63902;52.000;5.954;2023-04-24T01:50:02;12.13;;;7.65;;
67930;SDS011;63902;52.000;5.954;2023-04-24T01:51:03;12.27;;;8.40;;
67930;SDS011;63902;52.000;5.954;2023-04-24T01:52:04;11.25;;;7.40;;
67930;SDS011;63902;52.000;5.954;2023-04-24T01:53:06;11.40;;;7.20;;
67930;SDS011;63902;52.000;5.954;2023-04-24T01:54:06;11.02;;;7.00;;
67930;SDS011;63902;52.000;5.954;2023-04-24T01:55:07;9.93;;;5.55;;
67930;SDS011;63902;52.000;5.954;2023-04-24T01:56:08;7.68;;;5.13;;
67930;SDS011;63902;52.000;5.954;2023-04-24T01:57:09;10.00;;;4.75;;
67930;SDS011;63902;52.000;5.954;2023-04-24T01:58:09;6.90;;;4.40;;
67930;SDS011;63902;52.000;5.954;2023-04-24T01:59:10;7.68;;;3.80;;
67930;SDS011;63902;52.000;5.954;2023-04-24T02:00:12;6.82;;;4.18;;
67930;SDS011;63902;52.000;5.954;2023-04-24T02:01:14;10.65;;;4.10;;
67930;SDS011;63902;52.000;5.954;2023-04-24T02:02:17;5.63;;;3.90;;
67930;SDS011;63902;52.000;5.954;2023-04-24T02:03:18;6.93;;;4.28;;
67930;SDS011;63902;52.000;5.954;2023-04-24T02:04:18;7.50;;;4.55;;
67930;SDS011;63902;52.000;5.954;2023-04-24T02:05:19;6.93;;;4.95;;
67930;SDS011;63902;52.000;5.954;2023-04-24T02:06:19;8.23;;;4.90;;
67930;SDS011;63902;52.000;5.954;2023-04-24T02:07:19;7.38;;;5.13;;
67930;SDS011;63902;52.000;5.954;2023-04-24T02:08:21;6.68;;;4.50;;
67930;SDS011;63902;52.000;5.954;2023-04-24T02:09:22;7.30;;;5.00;;
67930;SDS011;63902;52.000;5.954;2023-04-24T02:10:22;9.85;;;5.85;;
67930;SDS011;63902;52.000;5.954;2023-04-24T02:11:23;8.40;;;5.65;;
67930;SDS011;63902;52.000;5.954;2023-04-24T02:12:23;8.23;;;5.28;;
67930;SDS011;63902;52.000;5.954;2023-04-24T02:13:24;9.65;;;5.53;;
67930;SDS011;63902;52.000;5.954;2023-04-24T02:14:24;11.00;;;6.20;;
67930;SDS011;63902;52.000;5.954;2023-04-24T02:15:25;10.68;;;5.97;;
67930;SDS011;63902;52.000;5.954;2023-04-24T02:16:25;8.32;;;5.95;;
67930;SDS011;63902;52.000;5.954;2023-04-24T02:17:26;10.70;;;7.43;;
67930;SDS011;63902;52.000;5.954;2023-04-24T02:18:26;11.63;;;6.72;;
67930;SDS011;63902;52.000;5.954;2023-04-24T02:19:27;11.15;;;7.93;;
67930;SDS011;63902;52.000;5.954;2023-04-24T02:20:27;13.43;;;7.72;;
67930;SDS011;63902;52.000;5.954;2023-04-24T02:21:28;11.07;;;7.25;;
67930;SDS011;63902;52.000;5.954;2023-04-24T02:22:28;13.88;;;7.25;;
67930;SDS011;63902;52.000;5.954;2023-04-24T02:23:30;13.57;;;7.93;;
67930;SDS011;63902;52.000;5.954;2023-04-24T02:24:30;12.85;;;7.30;;
67930;SDS011;63902;52.000;5.954;2023-04-24T02:25:31;9.82;;;6.78;;
67930;SDS011;63902;52.000;5.954;2023-04-24T02:26:31;12.60;;;7.78;;
67930;SDS011;63902;52.000;5.954;2023-04-24T02:27:32;11.18;;;7.38;;
67930;SDS011;63902;52.000;5.954;2023-04-24T02:28:32;10.18;;;7.97;;
67930;SDS011;63902;52.000;5.954;2023-04-24T02:29:32;15.85;;;8.55;;
67930;SDS011;63902;52.000;5.954;2023-04-24T02:30:33;14.80;;;10.45;;
67930;SDS011;63902;52.000;5.954;2023-04-24T02:31:33;18.20;;;10.02;;
67930;SDS011;63902;52.000;5.954;2023-04-24T02:32:34;16.48;;;10.48;;
67930;SDS011;63902;52.000;5.954;2023-04-24T02:33:34;16.42;;;10.25;;
67930;SDS011;63902;52.000;5.954;2023-04-24T02:34:35;18.75;;;11.05;;
67930;SDS011;63902;52.000;5.954;2023-04-24T02:35:35;17.67;;;11.18;;
67930;SDS011;63902;52.000;5.954;2023-04-24T02:36:35;19.08;;;11.88;;
67930;SDS011;63902;52.000;5.954;2023-04-24T02:37:36;21.15;;;11.23;;
67930;SDS011;63902;52.000;5.954;2023-04-24T02:38:38;19.80;;;11.95;;
67930;SDS011;63902;52.000;5.954;2023-04-24T02:39:39;19.35;;;11.35;;
67930;SDS011;63902;52.000;5.954;2023-04-24T02:40:39;17.88;;;11.52;;
67930;SDS011;63902;52.000;5.954;2023-04-24T02:41:40;21.88;;;12.02;;
67930;SDS011;63902;52.000;5.954;2023-04-24T02:42:40;16.10;;;11.60;;
67930;SDS011;63902;52.000;5.954;2023-04-24T02:43:41;18.63;;;11.35;;
67930;SDS011;63902;52.000;5.954;2023-04-24T02:44:41;17.52;;;11.30;;
67930;SDS011;63902;52.000;5.954;2023-04-24T02:45:42;19.55;;;11.68;;
67930;SDS011;63902;52.000;5.954;2023-04-24T02:46:42;15.95;;;10.65;;
67930;SDS011;63902;52.000;5.954;2023-04-24T02:47:43;21.00;;;11.25;;
67930;SDS011;63902;52.000;5.954;2023-04-24T02:48:43;19.27;;;12.05;;
67930;SDS011;63902;52.000;5.954;2023-04-24T02:49:44;18.38;;;11.48;;
67930;SDS011;63902;52.000;5.954;2023-04-24T02:50:44;16.40;;;11.23;;
67930;SDS011;63902;52.000;5.954;2023-04-24T02:51:45;22.80;;;10.93;;
67930;SDS011;63902;52.000;5.954;2023-04-24T02:52:45;17.85;;;11.00;;
67930;SDS011;63902;52.000;5.954;2023-04-24T02:53:47;18.95;;;10.77;;
67930;SDS011;63902;52.000;5.954;2023-04-24T02:54:47;18.42;;;11.45;;
67930;SDS011;63902;52.000;5.954;2023-04-24T02:55:48;17.75;;;11.32;;
67930;SDS011;63902;52.000;5.954;2023-04-24T02:56:48;14.85;;;10.05;;
67930;SDS011;63902;52.000;5.954;2023-04-24T02:57:49;19.05;;;11.30;;
67930;SDS011;63902;52.000;5.954;2023-04-24T02:58:49;19.33;;;11.18;;
67930;SDS011;63902;52.000;5.954;2023-04-24T02:59:49;17.58;;;11.70;;
67930;SDS011;63902;52.000;5.954;2023-04-24T03:00:52;20.27;;;10.90;;
67930;SDS011;63902;52.000;5.954;2023-04-24T03:01:53;16.33;;;10.68;;
67930;SDS011;63902;52.000;5.954;2023-04-24T03:02:53;15.60;;;10.60;;
67930;SDS011;63902;52.000;5.954;2023-04-24T03:03:54;22.02;;;11.25;;
67930;SDS011;63902;52.000;5.954;2023-04-24T03:04:54;14.32;;;10.10;;
67930;SDS011;63902;52.000;5.954;2023-04-24T03:05:55;20.45;;;9.57;;
67930;SDS011;63902;52.000;5.954;2023-04-24T03:06:55;16.40;;;10.90;;
67930;SDS011;63902;52.000;5.954;2023-04-24T03:07:56;17.95;;;10.40;;
67930;SDS011;63902;52.000;5.954;2023-04-24T03:08:58;16.38;;;10.13;;
67930;SDS011;63902;52.000;5.954;2023-04-24T03:09:58;16.50;;;10.13;;
67930;SDS011;63902;52.000;5.954;2023-04-24T03:10:59;16.63;;;10.77;;
67930;SDS011;63902;52.000;5.954;2023-04-24T03:11:59;16.67;;;10.63;;
67930;SDS011;63902;52.000;5.954;2023-04-24T03:13:00;13.73;;;9.05;;
67930;SDS011;63902;52.000;5.954;2023-04-24T03:14:00;17.23;;;9.90;;
67930;SDS011;63902;52.000;5.954;2023-04-24T03:15:00;17.42;;;10.48;;
67930;SDS011;63902;52.000;5.954;2023-04-24T03:16:01;15.73;;;10.18;;
67930;SDS011;63902;52.000;5.954;2023-04-24T03:17:01;19.27;;;10.80;;
67930;SDS011;63902;52.000;5.954;2023-04-24T03:18:02;14.95;;;10.15;;
67930;SDS011;63902;52.000;5.954;2023-04-24T03:19:02;13.38;;;9.57;;
67930;SDS011;63902;52.000;5.954;2023-04-24T03:20:03;18.48;;;11.77;;
67930;SDS011;63902;52.000;5.954;2023-04-24T03:21:04;16.45;;;10.27;;
67930;SDS011;63902;52.000;5.954;2023-04-24T03:22:05;18.38;;;10.02;;
67930;SDS011;63902;52.000;5.954;2023-04-24T03:23:05;18.42;;;9.95;;
67930;SDS011;63902;52.000;5.954;2023-04-24T03:24:07;14.05;;;8.57;;
67930;SDS011;63902;52.000;5.954;2023-04-24T03:25:09;14.95;;;10.73;;
67930;SDS011;63902;52.000;5.954;2023-04-24T03:26:09;16.13;;;11.25;;
67930;SDS011;63902;52.000;5.954;2023-04-24T03:27:09;28.65;;;10.43;;
67930;SDS011;63902;52.000;5.954;2023-04-24T03:28:10;13.43;;;9.18;;
67930;SDS011;63902;52.000;5.954;2023-04-24T03:29:10;20.45;;;11.23;;
67930;SDS011;63902;52.000;5.954;2023-04-24T03:30:11;19.05;;;10.90;;
67930;SDS011;63902;52.000;5.954;2023-04-24T03:31:11;17.90;;;10.52;;
67930;SDS011;63902;52.000;5.954;2023-04-24T03:32:12;15.73;;;10.43;;
67930;SDS011;63902;52.000;5.954;2023-04-24T03:33:12;15.27;;;9.75;;
67930;SDS011;63902;52.000;5.954;2023-04-24T03:34:13;15.38;;;9.77;;
67930;SDS011;63902;52.000;5.954;2023-04-24T03:35:13;16.00;;;9.60;;
67930;SDS011;63902;52.000;5.954;2023-04-24T03:36:14;14.98;;;9.68;;
67930;SDS011;63902;52.000;5.954;2023-04-24T03:37:14;17.95;;;8.43;;
67930;SDS011;63902;52.000;5.954;2023-04-24T03:38:15;13.82;;;9.02;;
67930;SDS011;63902;52.000;5.954;2023-04-24T03:39:16;12.65;;;9.35;;
67930;SDS011;63902;52.000;5.954;2023-04-24T03:40:17;15.88;;;9.88;;
67930;SDS011;63902;52.000;5.954;2023-04-24T03:41:17;14.98;;;10.13;;
67930;SDS011;63902;52.000;5.954;2023-04-24T03:42:18;14.40;;;9.43;;
67930;SDS011;63902;52.000;5.954;2023-04-24T03:43:18;14.80;;;9.98;;
67930;SDS011;63902;52.000;5.954;2023-04-24T03:44:19;15.82;;;10.43;;
67930;SDS011;63902;52.000;5.954;2023-04-24T03:45:19;17.13;;;10.77;;
67930;SDS011;63902;52.000;5.954;2023-04-24T03:46:20;15.45;;;10.25;;
67930;SDS011;63902;52.000;5.954;2023-04-24T03:47:20;16.67;;;11.65;;
67930;SDS011;63902;52.000;5.954;2023-04-24T03:48:21;15.25;;;11.13;;
67930;SDS011;63902;52.000;5.954;2023-04-24T03:49:21;17.67;;;12.35;;
67930;SDS011;63902;52.000;5.954;2023-04-24T03:50:22;14.45;;;10.77;;
67930;SDS011;63902;52.000;5.954;2023-04-24T03:51:22;19.15;;;12.02;;
67930;SDS011;63902;52.000;5.954;2023-04-24T03:52:23;18.08;;;11.95;;
67930;SDS011;63902;52.000;5.954;2023-04-24T03:53:23;19.77;;;12.77;;
67930;SDS011;63902;52.000;5.954;2023-04-24T03:54:25;20.17;;;12.75;;
67930;SDS011;63902;52.000;5.954;2023-04-24T03:55:26;19.80;;;13.20;;
67930;SDS011;63902;52.000;5.954;2023-04-24T03:56:26;20.85;;;13.48;;
67930;SDS011;63902;52.000;5.954;2023-04-24T03:57:26;20.65;;;13.18;;
67930;SDS011;63902;52.000;5.954;2023-04-24T03:58:27;21.17;;;13.48;;
67930;SDS011;63902;52.000;5.954;2023-04-24T03:59:27;24.13;;;15.60;;
67930;SDS011;63902;52.000;5.954;2023-04-24T04:00:28;21.80;;;14.43;;
67930;SDS011;63902;52.000;5.954;2023-04-24T04:01:28;20.58;;;14.80;;
67930;SDS011;63902;52.000;5.954;2023-04-24T04:02:29;28.60;;;16.02;;
67930;SDS011;63902;52.000;5.954;2023-04-24T04:03:29;20.85;;;14.45;;
67930;SDS011;63902;52.000;5.954;2023-04-24T04:04:30;24.58;;;15.15;;
67930;SDS011;63902;52.000;5.954;2023-04-24T04:05:30;21.35;;;15.27;;
67930;SDS011;63902;52.000;5.954;2023-04-24T04:06:31;25.33;;;14.77;;
67930;SDS011;63902;52.000;5.954;2023-04-24T04:07:31;26.55;;;16.13;;
67930;SDS011;63902;52.000;5.954;2023-04-24T04:08:32;24.08;;;15.40;;
67930;SDS011;63902;52.000;5.954;2023-04-24T04:09:33;21.60;;;15.15;;
67930;SDS011;63902;52.000;5.954;2023-04-24T04:10:34;29.38;;;17.52;;
67930;SDS011;63902;52.000;5.954;2023-04-24T04:11:34;26.83;;;16.55;;
67930;SDS011;63902;52.000;5.954;2023-04-24T04:12:35;23.52;;;15.55;;
67930;SDS011;63902;52.000;5.954;2023-04-24T04:13:35;25.02;;;16.35;;
67930;SDS011;63902;52.000;5.954;2023-04-24T04:14:36;23.25;;;16.58;;
67930;SDS011;63902;52.000;5.954;2023-04-24T04:15:36;25.75;;;16.38;;
67930;SDS011;63902;52.000;5.954;2023-04-24T04:16:37;24.95;;;16.90;;
67930;SDS011;63902;52.000;5.954;2023-04-24T04:17:37;25.17;;;15.63;;
67930;SDS011;63902;52.000;5.954;2023-04-24T04:18:37;27.75;;;17.30;;
67930;SDS011;63902;52.000;5.954;2023-04-24T04:19:38;26.85;;;16.67;;
67930;SDS011;63902;52.000;5.954;2023-04-24T04:20:38;23.90;;;15.68;;
67930;SDS011;63902;52.000;5.954;2023-04-24T04:21:39;27.35;;;16.17;;
67930;SDS011;63902;52.000;5.954;2023-04-24T04:22:40;21.30;;;14.88;;
67930;SDS011;63902;52.000;5.954;2023-04-24T04:23:41;25.67;;;16.73;;
67930;SDS011;63902;52.000;5.954;2023-04-24T04:24:42;23.88;;;15.77;;
67930;SDS011;63902;52.000;5.954;2023-04-24T04:25:43;25.38;;;15.48;;
67930;SDS011;63902;52.000;5.954;2023-04-24T04:26:43;20.38;;;13.63;;
67930;SDS011;63902;52.000;5.954;2023-04-24T04:27:44;26.05;;;16.40;;
67930;SDS011;63902;52.000;5.954;2023-04-24T04:28:44;26.42;;;16.42;;
67930;SDS011;63902;52.000;5.954;2023-04-24T04:29:45;25.85;;;16.17;;
67930;SDS011;63902;52.000;5.954;2023-04-24T04:30:45;26.50;;;15.23;;
67930;SDS011;63902;52.000;5.954;2023-04-24T04:31:46;22.33;;;15.70;;
67930;SDS011;63902;52.000;5.954;2023-04-24T04:32:46;30.10;;;16.70;;
67930;SDS011;63902;52.000;5.954;2023-04-24T04:33:47;23.50;;;15.40;;
67930;SDS011;63902;52.000;5.954;2023-04-24T04:34:47;26.40;;;15.48;;
67930;SDS011;63902;52.000;5.954;2023-04-24T04:35:47;21.05;;;14.63;;
67930;SDS011;63902;52.000;5.954;2023-04-24T04:36:48;24.17;;;15.07;;
67930;SDS011;63902;52.000;5.954;2023-04-24T04:37:48;26.23;;;15.30;;
67930;SDS011;63902;52.000;5.954;2023-04-24T04:38:49;21.98;;;14.90;;
67930;SDS011;63902;52.000;5.954;2023-04-24T04:39:51;23.90;;;15.50;;
67930;SDS011;63902;52.000;5.954;2023-04-24T04:40:51;22.77;;;15.27;;
67930;SDS011;63902;52.000;5.954;2023-04-24T04:41:52;26.02;;;15.40;;
67930;SDS011;63902;52.000;5.954;2023-04-24T04:42:52;22.88;;;14.43;;
67930;SDS011;63902;52.000;5.954;2023-04-24T04:43:53;21.98;;;14.48;;
67930;SDS011;63902;52.000;5.954;2023-04-24T04:44:53;23.20;;;14.57;;
67930;SDS011;63902;52.000;5.954;2023-04-24T04:45:54;24.05;;;15.68;;
67930;SDS011;63902;52.000;5.954;2023-04-24T04:46:54;21.95;;;14.98;;
67930;SDS011;63902;52.000;5.954;2023-04-24T04:47:55;23.90;;;15.38;;
67930;SDS011;63902;52.000;5.954;2023-04-24T04:48:55;24.08;;;14.52;;
67930;SDS011;63902;52.000;5.954;2023-04-24T04:49:55;19.83;;;14.32;;
67930;SDS011;63902;52.000;5.954;2023-04-24T04:50:56;20.95;;;13.35;;
67930;SDS011;63902;52.000;5.954;2023-04-24T04:51:56;22.33;;;14.38;;
67930;SDS011;63902;52.000;5.954;2023-04-24T04:52:57;20.88;;;14.23;;
67930;SDS011;63902;52.000;5.954;2023-04-24T04:53:57;21.63;;;14.18;;
67930;SDS011;63902;52.000;5.954;2023-04-24T04:54:59;23.60;;;14.57;;
67930;SDS011;63902;52.000;5.954;2023-04-24T04:55:59;27.30;;;13.65;;
67930;SDS011;63902;52.000;5.954;2023-04-24T04:57:00;19.75;;;13.38;;
67930;SDS011;63902;52.000;5.954;2023-04-24T04:58:01;20.27;;;14.45;;
67930;SDS011;63902;52.000;5.954;2023-04-24T04:59:01;25.45;;;15.02;;
67930;SDS011;63902;52.000;5.954;2023-04-24T05:00:02;24.73;;;14.35;;
67930;SDS011;63902;52.000;5.954;2023-04-24T05:01:02;21.05;;;13.75;;
67930;SDS011;63902;52.000;5.954;2023-04-24T05:02:03;22.48;;;14.48;;
67930;SDS011;63902;52.000;5.954;2023-04-24T05:03:03;22.55;;;12.73;;
67930;SDS011;63902;52.000;5.954;2023-04-24T05:04:04;19.52;;;13.00;;
67930;SDS011;63902;52.000;5.954;2023-04-24T05:05:05;22.00;;;13.57;;
67930;SDS011;63902;52.000;5.954;2023-04-24T05:06:06;20.60;;;14.27;;
67930;SDS011;63902;52.000;5.954;2023-04-24T05:07:06;21.23;;;13.10;;
67930;SDS011;63902;52.000;5.954;2023-04-24T05:08:07;21.73;;;13.55;;
67930;SDS011;63902;52.000;5.954;2023-04-24T05:09:07;21.27;;;13.23;;
67930;SDS011;63902;52.000;5.954;2023-04-24T05:10:09;23.50;;;13.50;;
67930;SDS011;63902;52.000;5.954;2023-04-24T05:11:10;21.33;;;12.68;;
67930;SDS011;63902;52.000;5.954;2023-04-24T05:12:10;22.92;;;13.93;;
67930;SDS011;63902;52.000;5.954;2023-04-24T05:13:11;19.08;;;13.60;;
67930;SDS011;63902;52.000;5.954;2023-04-24T05:14:11;17.58;;;12.73;;
67930;SDS011;63902;52.000;5.954;2023-04-24T05:15:12;19.88;;;12.68;;
67930;SDS011;63902;52.000;5.954;2023-04-24T05:16:12;20.60;;;12.80;;
67930;SDS011;63902;52.000;5.954;2023-04-24T05:17:13;20.67;;;12.32;;
67930;SDS011;63902;52.000;5.954;2023-04-24T05:18:13;19.33;;;12.38;;
67930;SDS011;63902;52.000;5.954;2023-04-24T05:19:14;19.33;;;12.70;;
67930;SDS011;63902;52.000;5.954;2023-04-24T05:20:14;15.35;;;11.38;;
67930;SDS011;63902;52.000;5.954;2023-04-24T05:21:14;17.23;;;12.30;;
67930;SDS011;63902;52.000;5.954;2023-04-24T05:22:15;18.73;;;11.68;;
67930;SDS011;63902;52.000;5.954;2023-04-24T05:23:15;16.73;;;11.18;;
67930;SDS011;63902;52.000;5.954;2023-04-24T05:24:16;21.75;;;12.57;;
67930;SDS011;63902;52.000;5.954;2023-04-24T05:25:18;20.75;;;12.88;;
67930;SDS011;63902;52.000;5.954;2023-04-24T05:26:18;17.55;;;12.05;;
67930;SDS011;63902;52.000;5.954;2023-04-24T05:27:19;18.13;;;12.38;;
67930;SDS011;63902;52.000;5.954;2023-04-24T05:28:20;18.40;;;12.27;;
67930;SDS011;63902;52.000;5.954;2023-04-24T05:29:20;20.33;;;12.95;;
67930;SDS011;63902;52.000;5.954;2023-04-24T05:30:21;15.88;;;11.60;;
67930;SDS011;63902;52.000;5.954;2023-04-24T05:31:21;17.55;;;11.30;;
67930;SDS011;63902;52.000;5.954;2023-04-24T05:32:22;17.55;;;11.05;;
67930;SDS011;63902;52.000;5.954;2023-04-24T05:33:22;17.38;;;11.30;;
67930;SDS011;63902;52.000;5.954;2023-04-24T05:34:22;17.35;;;11.55;;
67930;SDS011;63902;52.000;5.954;2023-04-24T05:35:23;16.05;;;11.07;;
67930;SDS011;63902;52.000;5.954;2023-04-24T05:36:23;15.07;;;10.07;;
67930;SDS011;63902;52.000;5.954;2023-04-24T05:37:24;15.45;;;10.57;;
67930;SDS011;63902;52.000;5.954;2023-04-24T05:38:24;16.50;;;11.70;;
67930;SDS011;63902;52.000;5.954;2023-04-24T05:39:25;17.80;;;11.05;;
67930;SDS011;63902;52.000;5.954;2023-04-24T05:40:27;17.70;;;11.10;;
67930;SDS011;63902;52.000;5.954;2023-04-24T05:41:27;18.45;;;11.43;;
67930;SDS011;63902;52.000;5.954;2023-04-24T05:42:28;14.27;;;9.85;;
67930;SDS011;63902;52.000;5.954;2023-04-24T05:43:28;15.30;;;10.20;;
67930;SDS011;63902;52.000;5.954;2023-04-24T05:44:28;17.90;;;10.52;;
67930;SDS011;63902;52.000;5.954;2023-04-24T05:45:29;16.42;;;10.25;;
67930;SDS011;63902;52.000;5.954;2023-04-24T05:46:29;15.88;;;10.60;;
67930;SDS011;63902;52.000;5.954;2023-04-24T05:47:30;14.60;;;9.73;;
67930;SDS011;63902;52.000;5.954;2023-04-24T05:48:30;15.15;;;10.23;;
67930;SDS011;63902;52.000;5.954;2023-04-24T05:49:31;14.88;;;10.30;;
67930;SDS011;63902;52.000;5.954;2023-04-24T05:50:31;15.63;;;10.05;;
67930;SDS011;63902;52.000;5.954;2023-04-24T05:51:32;17.50;;;9.82;;
67930;SDS011;63902;52.000;5.954;2023-04-24T05:52:32;15.50;;;9.77;;
67930;SDS011;63902;52.000;5.954;2023-04-24T05:53:32;15.38;;;9.63;;
67930;SDS011;63902;52.000;5.954;2023-04-24T05:54:33;17.30;;;9.80;;
67930;SDS011;63902;52.000;5.954;2023-04-24T05:55:35;16.70;;;10.18;;
67930;SDS011;63902;52.000;5.954;2023-04-24T05:56:35;13.77;;;9.23;;
67930;SDS011;63902;52.000;5.954;2023-04-24T05:57:36;14.82;;;9.52;;
67930;SDS011;63902;52.000;5.954;2023-04-24T05:58:36;12.63;;;9.35;;